sensor_id;sensor_type;location;lat;lon;timestamp;temperature;humidity
46378;DHT22;32083;47.360;9.650;2023-08-08T00:01:35;12.20;99.90
46378;DHT22;32083;47.360;9.650;2023-08-08T00:04:02;12.20;99.90
46378;DHT22;32083;47.360;9.650;2023-08-08T00:06:28;12.10;99.90
46378;DHT22;32083;47.360;9.650;2023-08-08T00:08:54;12.10;99.90
46378;DHT22;32083;47.360;9.650;2023-08-08T00:11:20;12.10;99.90
46378;DHT22;32083;47.360;9.650;2023-08-08T00:13:46;12.10;99.90
46378;DHT22;32083;47.360;9.650;2023-08-08T00:16:12;12.10;99.90
46378;DHT22;32083;47.360;9.650;2023-08-08T00:18:38;12.10;99.90
46378;DHT22;32083;47.360;9.650;2023-08-08T00:21:04;11.90;99.90
46378;DHT22;32083;47.360;9.650;2023-08-08T00:23:30;11.80;99.90
46378;DHT22;32083;47.360;9.650;2023-08-08T00:25:56;11.80;99.90
46378;DHT22;32083;47.360;9.650;2023-08-08T00:28:22;11.90;99.90
46378;DHT22;32083;47.360;9.650;2023-08-08T00:30:48;11.90;99.90
46378;DHT22;32083;47.360;9.650;2023-08-08T00:33:15;11.90;99.90
46378;DHT22;32083;47.360;9.650;2023-08-08T00:35:41;11.80;99.90
46378;DHT22;32083;47.360;9.650;2023-08-08T00:38:07;11.80;99.90
46378;DHT22;32083;47.360;9.650;2023-08-08T00:40:33;11.80;99.90
46378;DHT22;32083;47.360;9.650;2023-08-08T00:42:59;11.90;99.90
46378;DHT22;32083;47.360;9.650;2023-08-08T00:45:26;11.90;99.90
46378;DHT22;32083;47.360;9.650;2023-08-08T00:47:52;11.80;99.90
46378;DHT22;32083;47.360;9.650;2023-08-08T00:50:19;11.80;99.90
46378;DHT22;32083;47.360;9.650;2023-08-08T00:52:45;11.80;99.90
46378;DHT22;32083;47.360;9.650;2023-08-08T00:55:12;11.80;99.90
46378;DHT22;32083;47.360;9.650;2023-08-08T00:57:40;11.80;99.90
46378;DHT22;32083;47.360;9.650;2023-08-08T01:00:07;11.80;99.90
46378;DHT22;32083;47.360;9.650;2023-08-08T01:02:37;11.80;99.90
46378;DHT22;32083;47.360;9.650;2023-08-08T01:05:04;11.90;99.90
46378;DHT22;32083;47.360;9.650;2023-08-08T01:07:52;11.80;99.90
46378;DHT22;32083;47.360;9.650;2023-08-08T01:12:51;11.80;99.90
46378;DHT22;32083;47.360;9.650;2023-08-08T01:15:19;11.90;99.90
46378;DHT22;32083;47.360;9.650;2023-08-08T01:17:46;11.90;99.90
46378;DHT22;32083;47.360;9.650;2023-08-08T01:20:14;11.90;99.90
46378;DHT22;32083;47.360;9.650;2023-08-08T01:23:19;11.90;99.90
46378;DHT22;32083;47.360;9.650;2023-08-08T01:25:46;11.90;99.90
46378;DHT22;32083;47.360;9.650;2023-08-08T01:28:12;12.00;99.90
46378;DHT22;32083;47.360;9.650;2023-08-08T01:30:38;12.00;99.90
46378;DHT22;32083;47.360;9.650;2023-08-08T01:33:05;11.90;99.90
46378;DHT22;32083;47.360;9.650;2023-08-08T01:35:36;11.90;99.90
46378;DHT22;32083;47.360;9.650;2023-08-08T01:38:11;11.90;99.90
46378;DHT22;32083;47.360;9.650;2023-08-08T01:40:38;11.90;99.90
46378;DHT22;32083;47.360;9.650;2023-08-08T01:43:06;11.90;99.90
46378;DHT22;32083;47.360;9.650;2023-08-08T01:45:33;11.90;99.90
46378;DHT22;32083;47.360;9.650;2023-08-08T01:47:59;11.90;99.90
46378;DHT22;32083;47.360;9.650;2023-08-08T01:50:25;11.90;99.90
46378;DHT22;32083;47.360;9.650;2023-08-08T01:52:51;11.80;99.90
46378;DHT22;32083;47.360;9.650;2023-08-08T01:55:17;11.80;99.90
46378;DHT22;32083;47.360;9.650;2023-08-08T01:57:44;11.70;99.90
46378;DHT22;32083;47.360;9.650;2023-08-08T02:00:10;11.70;99.90
46378;DHT22;32083;47.360;9.650;2023-08-08T02:02:37;11.60;99.90
46378;DHT22;32083;47.360;9.650;2023-08-08T02:05:03;11.60;99.90
46378;DHT22;32083;47.360;9.650;2023-08-08T02:07:30;11.50;99.90
46378;DHT22;32083;47.360;9.650;2023-08-08T02:09:56;11.50;99.90
46378;DHT22;32083;47.360;9.650;2023-08-08T02:12:22;11.50;99.90
46378;DHT22;32083;47.360;9.650;2023-08-08T02:14:48;11.40;99.90
46378;DHT22;32083;47.360;9.650;2023-08-08T02:17:30;11.40;99.90
46378;DHT22;32083;47.360;9.650;2023-08-08T02:19:56;11.40;99.90
46378;DHT22;32083;47.360;9.650;2023-08-08T02:22:23;11.30;99.90
46378;DHT22;32083;47.360;9.650;2023-08-08T02:24:49;11.30;99.90
46378;DHT22;32083;47.360;9.650;2023-08-08T02:27:15;11.30;99.90
46378;DHT22;32083;47.360;9.650;2023-08-08T02:29:41;11.20;99.90
46378;DHT22;32083;47.360;9.650;2023-08-08T02:32:07;11.20;99.90
46378;DHT22;32083;47.360;9.650;2023-08-08T02:34:33;11.20;99.90
46378;DHT22;32083;47.360;9.650;2023-08-08T02:37:00;11.10;99.90
46378;DHT22;32083;47.360;9.650;2023-08-08T02:39:26;11.10;99.90
46378;DHT22;32083;47.360;9.650;2023-08-08T02:41:52;11.10;99.90
46378;DHT22;32083;47.360;9.650;2023-08-08T02:44:18;11.10;99.90
46378;DHT22;32083;47.360;9.650;2023-08-08T02:46:45;11.10;99.90
46378;DHT22;32083;47.360;9.650;2023-08-08T02:49:11;11.10;99.90
46378;DHT22;32083;47.360;9.650;2023-08-08T02:51:37;11.00;99.90
46378;DHT22;32083;47.360;9.650;2023-08-08T02:54:03;11.00;99.90
46378;DHT22;32083;47.360;9.650;2023-08-08T02:56:29;10.90;99.90
46378;DHT22;32083;47.360;9.650;2023-08-08T02:58:55;10.90;99.90
46378;DHT22;32083;47.360;9.650;2023-08-08T03:01:21;10.80;99.90
46378;DHT22;32083;47.360;9.650;2023-08-08T03:03:48;10.90;99.90
46378;DHT22;32083;47.360;9.650;2023-08-08T03:06:14;10.80;99.90
46378;DHT22;32083;47.360;9.650;2023-08-08T03:08:40;10.80;99.90
46378;DHT22;32083;47.360;9.650;2023-08-08T03:11:06;10.80;99.90
46378;DHT22;32083;47.360;9.650;2023-08-08T03:13:33;10.80;99.90
46378;DHT22;32083;47.360;9.650;2023-08-08T03:15:59;10.80;99.90
46378;DHT22;32083;47.360;9.650;2023-08-08T03:18:25;10.80;99.90
46378;DHT22;32083;47.360;9.650;2023-08-08T03:20:54;10.90;99.90
46378;DHT22;32083;47.360;9.650;2023-08-08T03:23:20;10.90;99.90
46378;DHT22;32083;47.360;9.650;2023-08-08T03:25:46;11.00;99.90
46378;DHT22;32083;47.360;9.650;2023-08-08T03:28:12;11.10;99.90
46378;DHT22;32083;47.360;9.650;2023-08-08T03:30:38;11.10;99.90
46378;DHT22;32083;47.360;9.650;2023-08-08T03:33:05;11.10;99.90
46378;DHT22;32083;47.360;9.650;2023-08-08T03:35:31;11.10;99.90
46378;DHT22;32083;47.360;9.650;2023-08-08T03:37:57;11.00;99.90
46378;DHT22;32083;47.360;9.650;2023-08-08T03:40:23;11.00;99.90
46378;DHT22;32083;47.360;9.650;2023-08-08T03:42:49;11.00;99.90
46378;DHT22;32083;47.360;9.650;2023-08-08T03:45:15;10.80;99.90
46378;DHT22;32083;47.360;9.650;2023-08-08T03:47:42;10.70;99.90
46378;DHT22;32083;47.360;9.650;2023-08-08T03:50:08;10.60;99.90
46378;DHT22;32083;47.360;9.650;2023-08-08T03:52:36;10.60;99.90
46378;DHT22;32083;47.360;9.650;2023-08-08T03:55:04;10.60;99.90
46378;DHT22;32083;47.360;9.650;2023-08-08T03:57:30;10.60;99.90
46378;DHT22;32083;47.360;9.650;2023-08-08T03:59:57;10.50;99.90
46378;DHT22;32083;47.360;9.650;2023-08-08T04:02:24;10.50;99.90
46378;DHT22;32083;47.360;9.650;2023-08-08T04:04:50;10.50;99.90
46378;DHT22;32083;47.360;9.650;2023-08-08T04:07:17;10.50;99.90
46378;DHT22;32083;47.360;9.650;2023-08-08T04:09:44;10.40;99.90
46378;DHT22;32083;47.360;9.650;2023-08-08T04:12:10;10.40;99.90
46378;DHT22;32083;47.360;9.650;2023-08-08T04:14:37;10.40;99.90
46378;DHT22;32083;47.360;9.650;2023-08-08T04:17:03;10.30;99.90
46378;DHT22;32083;47.360;9.650;2023-08-08T04:19:30;10.30;99.90
46378;DHT22;32083;47.360;9.650;2023-08-08T04:21:56;10.30;99.90
46378;DHT22;32083;47.360;9.650;2023-08-08T04:24:22;10.20;99.90
46378;DHT22;32083;47.360;9.650;2023-08-08T04:26:48;10.20;99.90
46378;DHT22;32083;47.360;9.650;2023-08-08T04:29:14;10.20;99.90
46378;DHT22;32083;47.360;9.650;2023-08-08T04:31:41;10.20;99.90
46378;DHT22;32083;47.360;9.650;2023-08-08T04:34:07;10.20;99.90
46378;DHT22;32083;47.360;9.650;2023-08-08T04:36:33;10.20;99.90
46378;DHT22;32083;47.360;9.650;2023-08-08T04:39:00;10.20;99.90
46378;DHT22;32083;47.360;9.650;2023-08-08T04:41:26;10.20;99.90
46378;DHT22;32083;47.360;9.650;2023-08-08T04:43:52;10.10;99.90
46378;DHT22;32083;47.360;9.650;2023-08-08T04:46:18;10.00;99.90
46378;DHT22;32083;47.360;9.650;2023-08-08T04:48:44;10.00;99.90
46378;DHT22;32083;47.360;9.650;2023-08-08T04:51:10;10.00;99.90
46378;DHT22;32083;47.360;9.650;2023-08-08T04:53:36;10.00;99.90
46378;DHT22;32083;47.360;9.650;2023-08-08T04:56:03;10.00;99.90
46378;DHT22;32083;47.360;9.650;2023-08-08T04:58:29;10.10;99.90
46378;DHT22;32083;47.360;9.650;2023-08-08T05:04:18;10.40;99.90
46378;DHT22;32083;47.360;9.650;2023-08-08T05:06:44;11.30;99.90
46378;DHT22;32083;47.360;9.650;2023-08-08T05:09:13;12.00;99.90
46378;DHT22;32083;47.360;9.650;2023-08-08T05:11:39;12.70;99.90
46378;DHT22;32083;47.360;9.650;2023-08-08T05:14:05;13.20;99.90
46378;DHT22;32083;47.360;9.650;2023-08-08T05:16:31;13.80;99.90
46378;DHT22;32083;47.360;9.650;2023-08-08T05:18:57;14.00;99.90
46378;DHT22;32083;47.360;9.650;2023-08-08T05:21:23;14.40;99.90
46378;DHT22;32083;47.360;9.650;2023-08-08T05:23:49;14.80;99.90
46378;DHT22;32083;47.360;9.650;2023-08-08T05:26:15;14.80;99.90
46378;DHT22;32083;47.360;9.650;2023-08-08T05:28:41;15.00;99.90
46378;DHT22;32083;47.360;9.650;2023-08-08T05:31:07;15.20;99.90
46378;DHT22;32083;47.360;9.650;2023-08-08T05:33:33;15.50;99.90
46378;DHT22;32083;47.360;9.650;2023-08-08T05:35:59;15.60;98.60
46378;DHT22;32083;47.360;9.650;2023-08-08T05:38:25;15.30;98.60
46378;DHT22;32083;47.360;9.650;2023-08-08T05:40:51;15.10;98.30
46378;DHT22;32083;47.360;9.650;2023-08-08T05:43:17;15.00;98.00
46378;DHT22;32083;47.360;9.650;2023-08-08T05:45:46;15.10;97.80
46378;DHT22;32083;47.360;9.650;2023-08-08T05:48:12;14.90;99.60
46378;DHT22;32083;47.360;9.650;2023-08-08T05:50:39;15.10;99.90
46378;DHT22;32083;47.360;9.650;2023-08-08T05:53:06;15.10;99.80
46378;DHT22;32083;47.360;9.650;2023-08-08T05:55:32;15.10;99.90
46378;DHT22;32083;47.360;9.650;2023-08-08T05:57:58;15.10;99.50
46378;DHT22;32083;47.360;9.650;2023-08-08T06:00:25;15.20;99.50
46378;DHT22;32083;47.360;9.650;2023-08-08T06:02:51;15.10;98.60
46378;DHT22;32083;47.360;9.650;2023-08-08T06:05:17;15.10;98.60
46378;DHT22;32083;47.360;9.650;2023-08-08T06:07:43;15.40;99.90
46378;DHT22;32083;47.360;9.650;2023-08-08T06:10:10;15.50;98.80
46378;DHT22;32083;47.360;9.650;2023-08-08T06:12:36;15.40;98.60
46378;DHT22;32083;47.360;9.650;2023-08-08T06:15:02;15.20;98.20
46378;DHT22;32083;47.360;9.650;2023-08-08T06:17:29;15.10;99.60
46378;DHT22;32083;47.360;9.650;2023-08-08T06:19:55;15.20;99.20
46378;DHT22;32083;47.360;9.650;2023-08-08T06:22:22;15.40;99.00
46378;DHT22;32083;47.360;9.650;2023-08-08T06:24:48;15.50;98.40
46378;DHT22;32083;47.360;9.650;2023-08-08T06:27:14;15.70;99.40
46378;DHT22;32083;47.360;9.650;2023-08-08T06:29:40;15.70;98.40
46378;DHT22;32083;47.360;9.650;2023-08-08T06:32:06;15.70;98.10
46378;DHT22;32083;47.360;9.650;2023-08-08T06:34:33;15.70;98.00
46378;DHT22;32083;47.360;9.650;2023-08-08T06:36:58;15.60;97.70
46378;DHT22;32083;47.360;9.650;2023-08-08T06:39:24;15.60;97.30
46378;DHT22;32083;47.360;9.650;2023-08-08T06:41:51;15.50;97.50
46378;DHT22;32083;47.360;9.650;2023-08-08T06:44:16;15.50;97.50
46378;DHT22;32083;47.360;9.650;2023-08-08T06:46:42;15.50;97.00
46378;DHT22;32083;47.360;9.650;2023-08-08T06:49:08;15.50;97.60
46378;DHT22;32083;47.360;9.650;2023-08-08T06:51:37;15.60;98.00
46378;DHT22;32083;47.360;9.650;2023-08-08T06:54:05;15.60;97.80
46378;DHT22;32083;47.360;9.650;2023-08-08T06:56:33;15.60;97.10
46378;DHT22;32083;47.360;9.650;2023-08-08T06:58:58;15.60;97.90
46378;DHT22;32083;47.360;9.650;2023-08-08T07:01:24;15.60;98.00
46378;DHT22;32083;47.360;9.650;2023-08-08T07:03:50;15.60;97.50
46378;DHT22;32083;47.360;9.650;2023-08-08T07:06:19;15.60;97.50
46378;DHT22;32083;47.360;9.650;2023-08-08T07:08:44;15.70;97.20
46378;DHT22;32083;47.360;9.650;2023-08-08T07:11:10;15.70;97.30
46378;DHT22;32083;47.360;9.650;2023-08-08T07:13:36;15.80;97.50
46378;DHT22;32083;47.360;9.650;2023-08-08T07:16:02;15.90;97.40
46378;DHT22;32083;47.360;9.650;2023-08-08T07:18:27;16.10;97.20
46378;DHT22;32083;47.360;9.650;2023-08-08T07:20:53;16.20;97.40
46378;DHT22;32083;47.360;9.650;2023-08-08T07:23:19;16.20;97.10
46378;DHT22;32083;47.360;9.650;2023-08-08T07:25:47;16.10;97.10
46378;DHT22;32083;47.360;9.650;2023-08-08T07:28:13;16.20;97.20
46378;DHT22;32083;47.360;9.650;2023-08-08T07:30:40;16.40;97.80
46378;DHT22;32083;47.360;9.650;2023-08-08T07:33:06;16.70;97.30
46378;DHT22;32083;47.360;9.650;2023-08-08T07:35:35;16.80;96.60
46378;DHT22;32083;47.360;9.650;2023-08-08T07:38:01;17.00;96.10
46378;DHT22;32083;47.360;9.650;2023-08-08T07:40:26;17.10;96.20
46378;DHT22;32083;47.360;9.650;2023-08-08T07:42:53;17.10;96.10
46378;DHT22;32083;47.360;9.650;2023-08-08T07:45:19;17.30;96.00
46378;DHT22;32083;47.360;9.650;2023-08-08T07:47:44;17.30;96.10
46378;DHT22;32083;47.360;9.650;2023-08-08T07:50:10;17.50;95.60
46378;DHT22;32083;47.360;9.650;2023-08-08T07:52:36;17.60;95.50
46378;DHT22;32083;47.360;9.650;2023-08-08T07:55:03;17.80;95.70
46378;DHT22;32083;47.360;9.650;2023-08-08T07:57:29;17.60;95.10
46378;DHT22;32083;47.360;9.650;2023-08-08T08:00:05;17.70;95.20
46378;DHT22;32083;47.360;9.650;2023-08-08T08:02:39;17.70;95.30
46378;DHT22;32083;47.360;9.650;2023-08-08T08:05:05;17.80;95.50
46378;DHT22;32083;47.360;9.650;2023-08-08T08:07:34;17.90;95.70
46378;DHT22;32083;47.360;9.650;2023-08-08T08:10:00;17.80;94.80
46378;DHT22;32083;47.360;9.650;2023-08-08T08:12:26;17.70;94.60
46378;DHT22;32083;47.360;9.650;2023-08-08T08:14:52;17.50;94.70
46378;DHT22;32083;47.360;9.650;2023-08-08T08:17:17;17.50;94.50
46378;DHT22;32083;47.360;9.650;2023-08-08T08:19:43;17.50;94.60
46378;DHT22;32083;47.360;9.650;2023-08-08T08:22:09;17.50;94.80
46378;DHT22;32083;47.360;9.650;2023-08-08T08:24:34;17.60;95.10
46378;DHT22;32083;47.360;9.650;2023-08-08T08:27:00;17.70;95.00
46378;DHT22;32083;47.360;9.650;2023-08-08T08:29:26;17.80;94.80
46378;DHT22;32083;47.360;9.650;2023-08-08T08:31:52;17.80;94.70
46378;DHT22;32083;47.360;9.650;2023-08-08T08:34:18;17.70;94.70
46378;DHT22;32083;47.360;9.650;2023-08-08T08:36:44;17.70;94.60
46378;DHT22;32083;47.360;9.650;2023-08-08T08:39:10;17.80;94.30
46378;DHT22;32083;47.360;9.650;2023-08-08T08:41:36;17.90;94.70
46378;DHT22;32083;47.360;9.650;2023-08-08T08:44:04;17.90;95.10
46378;DHT22;32083;47.360;9.650;2023-08-08T08:46:31;18.10;94.60
46378;DHT22;32083;47.360;9.650;2023-08-08T08:48:59;18.20;94.30
46378;DHT22;32083;47.360;9.650;2023-08-08T08:51:25;18.30;94.00
46378;DHT22;32083;47.360;9.650;2023-08-08T08:53:51;18.20;94.00
46378;DHT22;32083;47.360;9.650;2023-08-08T08:56:18;18.30;93.90
46378;DHT22;32083;47.360;9.650;2023-08-08T08:58:44;18.30;93.50
46378;DHT22;32083;47.360;9.650;2023-08-08T09:01:10;18.20;93.90
46378;DHT22;32083;47.360;9.650;2023-08-08T09:03:36;18.30;92.80
46378;DHT22;32083;47.360;9.650;2023-08-08T09:06:04;18.40;93.50
46378;DHT22;32083;47.360;9.650;2023-08-08T09:08:30;18.50;93.90
46378;DHT22;32083;47.360;9.650;2023-08-08T09:10:56;18.60;93.70
46378;DHT22;32083;47.360;9.650;2023-08-08T09:13:23;18.60;93.60
46378;DHT22;32083;47.360;9.650;2023-08-08T09:15:52;18.60;94.10
46378;DHT22;32083;47.360;9.650;2023-08-08T09:18:17;18.70;93.30
46378;DHT22;32083;47.360;9.650;2023-08-08T09:20:50;18.80;94.00
46378;DHT22;32083;47.360;9.650;2023-08-08T09:23:16;18.90;94.30
46378;DHT22;32083;47.360;9.650;2023-08-08T09:25:42;18.90;93.60
46378;DHT22;32083;47.360;9.650;2023-08-08T09:28:08;19.00;93.00
46378;DHT22;32083;47.360;9.650;2023-08-08T09:30:34;19.10;93.40
46378;DHT22;32083;47.360;9.650;2023-08-08T09:33:01;19.20;92.20
46378;DHT22;32083;47.360;9.650;2023-08-08T09:35:28;19.30;93.40
46378;DHT22;32083;47.360;9.650;2023-08-08T09:37:55;19.40;93.20
46378;DHT22;32083;47.360;9.650;2023-08-08T09:40:22;19.40;92.00
46378;DHT22;32083;47.360;9.650;2023-08-08T09:42:47;19.50;91.90
46378;DHT22;32083;47.360;9.650;2023-08-08T09:45:14;19.40;90.90
46378;DHT22;32083;47.360;9.650;2023-08-08T09:47:40;19.40;90.40
46378;DHT22;32083;47.360;9.650;2023-08-08T09:50:06;19.50;91.00
46378;DHT22;32083;47.360;9.650;2023-08-08T09:52:34;19.50;88.40
46378;DHT22;32083;47.360;9.650;2023-08-08T09:55:00;19.50;83.70
46378;DHT22;32083;47.360;9.650;2023-08-08T09:57:26;19.40;86.20
46378;DHT22;32083;47.360;9.650;2023-08-08T09:59:52;19.50;83.60
46378;DHT22;32083;47.360;9.650;2023-08-08T10:02:18;19.50;88.00
46378;DHT22;32083;47.360;9.650;2023-08-08T10:04:45;19.50;85.30
46378;DHT22;32083;47.360;9.650;2023-08-08T10:07:11;19.50;85.60
46378;DHT22;32083;47.360;9.650;2023-08-08T10:09:37;19.50;86.70
46378;DHT22;32083;47.360;9.650;2023-08-08T10:12:06;19.60;86.00
46378;DHT22;32083;47.360;9.650;2023-08-08T10:14:35;19.60;84.00
46378;DHT22;32083;47.360;9.650;2023-08-08T10:17:06;19.70;89.10
46378;DHT22;32083;47.360;9.650;2023-08-08T10:19:32;19.70;86.80
46378;DHT22;32083;47.360;9.650;2023-08-08T10:22:04;19.70;88.70
46378;DHT22;32083;47.360;9.650;2023-08-08T10:24:34;19.70;88.40
46378;DHT22;32083;47.360;9.650;2023-08-08T10:27:01;19.80;88.50
46378;DHT22;32083;47.360;9.650;2023-08-08T10:29:29;19.80;88.70
46378;DHT22;32083;47.360;9.650;2023-08-08T10:32:04;19.90;90.50
46378;DHT22;32083;47.360;9.650;2023-08-08T10:34:43;20.00;90.60
46378;DHT22;32083;47.360;9.650;2023-08-08T10:37:14;19.90;89.90
46378;DHT22;32083;47.360;9.650;2023-08-08T10:39:54;20.00;90.20
46378;DHT22;32083;47.360;9.650;2023-08-08T10:42:23;20.00;89.40
46378;DHT22;32083;47.360;9.650;2023-08-08T10:44:57;20.10;87.80
46378;DHT22;32083;47.360;9.650;2023-08-08T10:47:30;20.10;89.30
46378;DHT22;32083;47.360;9.650;2023-08-08T10:49:58;20.20;88.30
46378;DHT22;32083;47.360;9.650;2023-08-08T10:52:24;20.20;88.60
46378;DHT22;32083;47.360;9.650;2023-08-08T10:54:53;20.10;87.50
46378;DHT22;32083;47.360;9.650;2023-08-08T10:57:23;20.10;85.80
46378;DHT22;32083;47.360;9.650;2023-08-08T10:59:49;20.10;87.70
46378;DHT22;32083;47.360;9.650;2023-08-08T11:02:16;20.10;87.90
46378;DHT22;32083;47.360;9.650;2023-08-08T11:04:42;20.20;88.60
46378;DHT22;32083;47.360;9.650;2023-08-08T11:07:08;20.20;86.60
46378;DHT22;32083;47.360;9.650;2023-08-08T11:09:34;20.10;85.40
46378;DHT22;32083;47.360;9.650;2023-08-08T11:12:00;20.30;86.40
46378;DHT22;32083;47.360;9.650;2023-08-08T11:14:26;20.40;86.50
46378;DHT22;32083;47.360;9.650;2023-08-08T11:16:52;20.40;85.80
46378;DHT22;32083;47.360;9.650;2023-08-08T11:19:18;20.50;85.60
46378;DHT22;32083;47.360;9.650;2023-08-08T11:21:46;20.50;84.20
46378;DHT22;32083;47.360;9.650;2023-08-08T11:24:12;20.50;84.50
46378;DHT22;32083;47.360;9.650;2023-08-08T11:26:41;20.50;85.70
46378;DHT22;32083;47.360;9.650;2023-08-08T11:29:07;20.60;86.70
46378;DHT22;32083;47.360;9.650;2023-08-08T11:31:37;20.60;86.20
46378;DHT22;32083;47.360;9.650;2023-08-08T11:34:03;20.70;85.40
46378;DHT22;32083;47.360;9.650;2023-08-08T11:36:32;20.80;86.90
46378;DHT22;32083;47.360;9.650;2023-08-08T11:39:01;20.80;86.60
46378;DHT22;32083;47.360;9.650;2023-08-08T11:41:34;20.90;89.80
46378;DHT22;32083;47.360;9.650;2023-08-08T11:44:01;21.00;89.90
46378;DHT22;32083;47.360;9.650;2023-08-08T11:46:27;21.00;88.90
46378;DHT22;32083;47.360;9.650;2023-08-08T11:48:53;21.10;88.90
46378;DHT22;32083;47.360;9.650;2023-08-08T11:51:18;21.00;88.70
46378;DHT22;32083;47.360;9.650;2023-08-08T11:53:52;20.90;89.10
46378;DHT22;32083;47.360;9.650;2023-08-08T11:56:21;20.90;87.90
46378;DHT22;32083;47.360;9.650;2023-08-08T11:58:50;20.90;89.50
46378;DHT22;32083;47.360;9.650;2023-08-08T12:01:24;20.80;89.40
46378;DHT22;32083;47.360;9.650;2023-08-08T12:03:50;20.80;90.00
46378;DHT22;32083;47.360;9.650;2023-08-08T12:06:17;20.80;88.20
46378;DHT22;32083;47.360;9.650;2023-08-08T12:08:48;20.70;87.30
46378;DHT22;32083;47.360;9.650;2023-08-08T12:11:16;20.70;87.70
46378;DHT22;32083;47.360;9.650;2023-08-08T12:17:05;20.90;88.00
46378;DHT22;32083;47.360;9.650;2023-08-08T12:19:31;20.80;87.70
46378;DHT22;32083;47.360;9.650;2023-08-08T12:22:08;20.80;87.00
46378;DHT22;32083;47.360;9.650;2023-08-08T12:24:34;20.80;87.70
46378;DHT22;32083;47.360;9.650;2023-08-08T12:27:01;20.90;88.40
46378;DHT22;32083;47.360;9.650;2023-08-08T12:29:27;20.90;88.20
46378;DHT22;32083;47.360;9.650;2023-08-08T12:31:59;20.90;87.50
46378;DHT22;32083;47.360;9.650;2023-08-08T12:34:41;20.80;86.80
46378;DHT22;32083;47.360;9.650;2023-08-08T12:37:21;20.80;88.10
46378;DHT22;32083;47.360;9.650;2023-08-08T12:39:54;20.80;88.00
46378;DHT22;32083;47.360;9.650;2023-08-08T12:42:28;20.90;86.70
46378;DHT22;32083;47.360;9.650;2023-08-08T12:45:22;21.00;87.10
46378;DHT22;32083;47.360;9.650;2023-08-08T12:47:51;21.10;84.20
46378;DHT22;32083;47.360;9.650;2023-08-08T12:50:21;21.20;86.70
46378;DHT22;32083;47.360;9.650;2023-08-08T12:52:58;21.20;87.00
46378;DHT22;32083;47.360;9.650;2023-08-08T12:55:31;21.10;86.50
46378;DHT22;32083;47.360;9.650;2023-08-08T12:57:58;20.90;87.50
46378;DHT22;32083;47.360;9.650;2023-08-08T13:00:44;20.80;88.00
46378;DHT22;32083;47.360;9.650;2023-08-08T13:03:11;20.60;88.10
46378;DHT22;32083;47.360;9.650;2023-08-08T13:05:40;20.50;87.60
46378;DHT22;32083;47.360;9.650;2023-08-08T13:08:09;20.40;88.90
46378;DHT22;32083;47.360;9.650;2023-08-08T13:10:48;20.40;88.90
46378;DHT22;32083;47.360;9.650;2023-08-08T13:13:17;20.40;88.10
46378;DHT22;32083;47.360;9.650;2023-08-08T13:15:49;20.40;88.40
46378;DHT22;32083;47.360;9.650;2023-08-08T13:18:25;20.40;89.40
46378;DHT22;32083;47.360;9.650;2023-08-08T13:20:51;20.30;89.80
46378;DHT22;32083;47.360;9.650;2023-08-08T13:23:18;20.30;88.70
46378;DHT22;32083;47.360;9.650;2023-08-08T13:25:44;20.30;89.00
46378;DHT22;32083;47.360;9.650;2023-08-08T13:28:11;20.40;88.90
46378;DHT22;32083;47.360;9.650;2023-08-08T13:30:38;20.30;90.10
46378;DHT22;32083;47.360;9.650;2023-08-08T13:33:07;20.30;90.30
46378;DHT22;32083;47.360;9.650;2023-08-08T13:35:34;20.30;90.10
46378;DHT22;32083;47.360;9.650;2023-08-08T13:38:03;20.20;90.30
46378;DHT22;32083;47.360;9.650;2023-08-08T13:40:29;20.20;90.00
46378;DHT22;32083;47.360;9.650;2023-08-08T13:42:56;20.20;89.70
46378;DHT22;32083;47.360;9.650;2023-08-08T13:45:23;20.30;90.20
46378;DHT22;32083;47.360;9.650;2023-08-08T13:47:49;20.30;90.30
46378;DHT22;32083;47.360;9.650;2023-08-08T13:50:16;20.30;90.30
46378;DHT22;32083;47.360;9.650;2023-08-08T13:52:48;20.30;90.10
46378;DHT22;32083;47.360;9.650;2023-08-08T13:55:25;20.30;90.00
46378;DHT22;32083;47.360;9.650;2023-08-08T13:58:19;20.30;90.00
46378;DHT22;32083;47.360;9.650;2023-08-08T14:01:07;20.40;89.50
46378;DHT22;32083;47.360;9.650;2023-08-08T14:03:34;20.50;90.20
46378;DHT22;32083;47.360;9.650;2023-08-08T14:06:08;20.60;90.20
46378;DHT22;32083;47.360;9.650;2023-08-08T14:08:35;20.70;90.00
46378;DHT22;32083;47.360;9.650;2023-08-08T14:11:05;20.70;89.90
46378;DHT22;32083;47.360;9.650;2023-08-08T14:13:32;20.70;88.90
46378;DHT22;32083;47.360;9.650;2023-08-08T14:16:01;20.70;89.70
46378;DHT22;32083;47.360;9.650;2023-08-08T14:18:27;20.80;89.40
46378;DHT22;32083;47.360;9.650;2023-08-08T14:20:55;20.80;90.20
46378;DHT22;32083;47.360;9.650;2023-08-08T14:23:22;20.90;90.00
46378;DHT22;32083;47.360;9.650;2023-08-08T14:25:48;21.00;88.70
46378;DHT22;32083;47.360;9.650;2023-08-08T14:28:16;21.10;87.70
46378;DHT22;32083;47.360;9.650;2023-08-08T14:30:45;21.20;88.00
46378;DHT22;32083;47.360;9.650;2023-08-08T14:33:14;21.20;88.00
46378;DHT22;32083;47.360;9.650;2023-08-08T14:35:42;21.30;87.30
46378;DHT22;32083;47.360;9.650;2023-08-08T14:38:14;21.40;86.40
46378;DHT22;32083;47.360;9.650;2023-08-08T14:40:50;21.50;86.00
46378;DHT22;32083;47.360;9.650;2023-08-08T14:43:18;21.60;86.40
46378;DHT22;32083;47.360;9.650;2023-08-08T14:45:49;21.80;86.10
46378;DHT22;32083;47.360;9.650;2023-08-08T14:48:17;21.80;85.30
46378;DHT22;32083;47.360;9.650;2023-08-08T14:50:47;22.00;83.70
46378;DHT22;32083;47.360;9.650;2023-08-08T14:53:14;22.00;84.80
46378;DHT22;32083;47.360;9.650;2023-08-08T14:55:44;22.10;84.10
46378;DHT22;32083;47.360;9.650;2023-08-08T14:58:14;22.10;84.20
46378;DHT22;32083;47.360;9.650;2023-08-08T15:00:43;22.20;83.30
46378;DHT22;32083;47.360;9.650;2023-08-08T15:03:10;22.60;86.20
46378;DHT22;32083;47.360;9.650;2023-08-08T15:05:37;22.60;83.60
46378;DHT22;32083;47.360;9.650;2023-08-08T15:08:07;22.70;84.00
46378;DHT22;32083;47.360;9.650;2023-08-08T15:10:36;22.60;81.90
46378;DHT22;32083;47.360;9.650;2023-08-08T15:13:03;22.70;86.70
46378;DHT22;32083;47.360;9.650;2023-08-08T15:15:42;22.80;83.00
46378;DHT22;32083;47.360;9.650;2023-08-08T15:18:13;22.80;82.10
46378;DHT22;32083;47.360;9.650;2023-08-08T15:20:43;22.80;80.60
46378;DHT22;32083;47.360;9.650;2023-08-08T15:23:12;22.60;80.40
46378;DHT22;32083;47.360;9.650;2023-08-08T15:25:44;22.20;79.10
46378;DHT22;32083;47.360;9.650;2023-08-08T15:28:10;22.20;82.40
46378;DHT22;32083;47.360;9.650;2023-08-08T15:30:43;22.30;81.40
46378;DHT22;32083;47.360;9.650;2023-08-08T15:33:11;22.40;80.10
46378;DHT22;32083;47.360;9.650;2023-08-08T15:35:41;22.60;84.20
46378;DHT22;32083;47.360;9.650;2023-08-08T15:38:29;22.70;83.10
46378;DHT22;32083;47.360;9.650;2023-08-08T15:40:58;22.80;79.10
46378;DHT22;32083;47.360;9.650;2023-08-08T15:43:28;22.70;81.40